createdAt,value
2022-11-20T00:00:19.592Z,39.60
2022-11-20T00:02:46.754Z,46.13
2022-11-20T00:05:14.012Z,47.70
2022-11-20T00:07:41.343Z,39.17
2022-11-20T00:10:08.537Z,37.27
2022-11-20T00:15:11.099Z,44.73
2022-11-20T00:17:38.292Z,42.43
2022-11-20T00:20:05.616Z,46.70
2022-11-20T00:22:32.747Z,34.27
2022-11-20T00:24:59.869Z,36.33
2022-11-20T00:27:27.016Z,34.73
2022-11-20T00:29:54.123Z,32.77
2022-11-20T00:32:21.286Z,33.47
2022-11-20T00:34:48.389Z,33.40
2022-11-20T00:37:15.568Z,32.23
2022-11-20T00:39:42.694Z,30.87
2022-11-20T00:42:09.857Z,33.93
2022-11-20T00:44:37.015Z,30.20
2022-11-20T00:47:03.742Z,27.63
2022-11-20T00:49:30.908Z,25.07
2022-11-20T00:51:58.030Z,30.13
2022-11-20T00:54:25.071Z,26.67
2022-11-20T00:56:54.523Z,26.13
2022-11-20T00:59:21.873Z,28.10
2022-11-20T01:01:49.258Z,24.40
2022-11-20T01:04:16.394Z,30.30
2022-11-20T01:06:43.543Z,31.03
2022-11-20T01:09:15.071Z,26.47
2022-11-20T01:11:44.521Z,26.87
2022-11-20T01:14:17.629Z,37.07
2022-11-20T01:16:49.526Z,26.87
2022-11-20T01:19:21.977Z,30.03
2022-11-20T01:21:53.965Z,27.13
2022-11-20T01:24:22.176Z,30.67
2022-11-20T01:26:51.033Z,27.70
2022-11-20T01:29:24.223Z,28.57
2022-11-20T01:31:52.476Z,22.37
2022-11-20T01:34:21.015Z,31.87
2022-11-20T01:36:48.263Z,26.33
2022-11-20T01:39:17.818Z,26.17
2022-11-20T01:42:09.382Z,32.77
2022-11-20T01:44:51.581Z,31.43
2022-11-20T01:47:32.923Z,28.50
2022-11-20T01:50:05.135Z,27.03
2022-11-20T01:52:45.719Z,31.23
2022-11-20T01:55:20.326Z,27.67
2022-11-20T01:57:49.883Z,30.20
2022-11-20T02:00:20.555Z,28.30
2022-11-20T02:02:52.515Z,32.57
2022-11-20T02:05:19.584Z,25.80
2022-11-20T02:07:47.618Z,25.63
2022-11-20T02:10:15.099Z,24.63
2022-11-20T02:13:00.922Z,28.43
2022-11-20T02:15:30.411Z,25.60
2022-11-20T02:17:57.887Z,26.47
2022-11-20T02:20:24.727Z,31.13
2022-11-20T02:23:21.505Z,29.83
2022-11-20T02:25:48.759Z,28.73
2022-11-20T02:28:16.443Z,28.20
2022-11-20T02:30:43.255Z,29.20
2022-11-20T02:33:10.379Z,28.77
2022-11-20T02:35:42.556Z,29.70
2022-11-20T02:38:09.528Z,28.80
2022-11-20T02:40:36.650Z,29.13
2022-11-20T02:43:03.747Z,30.73
2022-11-20T02:45:30.987Z,25.73
2022-11-20T02:47:57.791Z,29.67
2022-11-20T02:50:24.939Z,24.97
2022-11-20T02:52:52.066Z,25.10
2022-11-20T02:55:18.904Z,29.60
2022-11-20T02:57:46.005Z,25.33
2022-11-20T03:00:13.379Z,27.50
2022-11-20T03:02:40.526Z,28.57
2022-11-20T03:05:07.832Z,24.60
2022-11-20T03:07:35.041Z,27.13
2022-11-20T03:10:02.318Z,26.97
2022-11-20T03:12:29.477Z,30.30
2022-11-20T03:14:56.664Z,31.60
2022-11-20T03:17:23.797Z,28.73
2022-11-20T03:19:50.936Z,24.50
2022-11-20T03:22:18.062Z,34.40
2022-11-20T03:24:45.170Z,34.23
2022-11-20T03:27:12.299Z,32.70
2022-11-20T03:29:39.414Z,27.80
2022-11-20T03:32:06.704Z,29.13
2022-11-20T03:34:33.833Z,31.20
2022-11-20T03:37:00.929Z,28.33
2022-11-20T03:39:28.031Z,30.33
2022-11-20T03:41:55.436Z,32.27
2022-11-20T03:44:22.778Z,31.33
2022-11-20T03:46:49.920Z,27.90
2022-11-20T03:49:17.107Z,28.77
2022-11-20T03:51:44.471Z,28.83
2022-11-20T03:54:11.861Z,36.00
2022-11-20T03:56:40.035Z,33.10
2022-11-20T03:59:07.734Z,36.70
2022-11-20T04:01:38.409Z,35.50
2022-11-20T04:04:05.398Z,29.00
2022-11-20T04:06:36.230Z,30.53
2022-11-20T04:09:03.470Z,33.20
2022-11-20T04:11:32.262Z,36.90
2022-11-20T04:14:04.255Z,38.53
2022-11-20T04:16:33.532Z,28.63
2022-11-20T04:19:02.173Z,27.57
2022-11-20T04:21:29.602Z,27.40
2022-11-20T04:23:57.373Z,30.40
2022-11-20T04:26:25.988Z,26.30
2022-11-20T04:28:52.942Z,24.97
2022-11-20T04:31:21.542Z,26.67
2022-11-20T04:33:48.818Z,23.47
2022-11-20T04:36:21.377Z,24.10
2022-11-20T04:38:56.484Z,32.00
2022-11-20T04:41:25.933Z,28.23
2022-11-20T04:44:00.190Z,27.13
2022-11-20T04:46:28.574Z,30.13
2022-11-20T04:48:55.884Z,25.50
2022-11-20T04:51:22.957Z,27.83
2022-11-20T04:53:50.039Z,28.87
2022-11-20T04:56:17.388Z,24.50
2022-11-20T04:58:44.349Z,25.03
2022-11-20T05:01:33.727Z,23.40
2022-11-20T05:04:00.935Z,25.50
2022-11-20T05:06:28.090Z,25.03
2022-11-20T05:08:55.200Z,21.40
2022-11-20T05:11:22.604Z,22.50
2022-11-20T05:13:51.432Z,24.67
2022-11-20T05:16:23.456Z,20.87
2022-11-20T05:18:51.908Z,22.90
2022-11-20T05:21:18.739Z,21.97
2022-11-20T05:23:46.119Z,26.20
2022-11-20T05:26:18.549Z,24.80
2022-11-20T05:28:45.685Z,22.77
2022-11-20T05:31:26.574Z,23.70
2022-11-20T05:33:54.858Z,27.67
2022-11-20T05:36:21.998Z,31.60
2022-11-20T05:38:51.078Z,28.80
2022-11-20T05:41:20.630Z,24.07
2022-11-20T05:43:49.349Z,24.33
2022-11-20T05:46:22.253Z,21.63
2022-11-20T05:48:52.060Z,22.10
2022-11-20T05:51:19.870Z,24.10
2022-11-20T05:53:48.694Z,19.67
2022-11-20T05:56:20.811Z,25.03
2022-11-20T05:58:48.395Z,30.63
2022-11-20T06:01:16.566Z,24.13
2022-11-20T06:03:46.897Z,30.70
2022-11-20T06:06:15.175Z,22.90
2022-11-20T06:08:42.419Z,24.10
2022-11-20T06:11:11.199Z,26.83
2022-11-20T06:13:41.808Z,27.60
2022-11-20T06:16:09.689Z,22.23
2022-11-20T06:18:36.799Z,36.30
2022-11-20T06:21:13.756Z,26.83
2022-11-20T06:23:41.093Z,28.23
2022-11-20T06:26:13.264Z,24.97
2022-11-20T06:28:40.401Z,25.57
2022-11-20T06:31:08.190Z,27.80
2022-11-20T06:33:35.327Z,26.53
2022-11-20T06:36:08.925Z,33.33
2022-11-20T06:38:37.650Z,31.97
2022-11-20T06:41:05.687Z,32.00
2022-11-20T06:43:32.818Z,27.73
2022-11-20T06:46:00.411Z,27.37
2022-11-20T06:48:28.501Z,31.80
2022-11-20T06:50:55.638Z,31.27
2022-11-20T06:53:23.165Z,31.10
2022-11-20T06:55:50.650Z,33.53
2022-11-20T06:58:17.842Z,30.97
2022-11-20T07:00:45.286Z,41.43
2022-11-20T07:03:13.057Z,33.67
2022-11-20T07:05:40.991Z,31.83
2022-11-20T07:08:08.362Z,32.23
2022-11-20T07:10:35.772Z,34.63
2022-11-20T07:13:02.872Z,31.87
2022-11-20T07:15:29.849Z,31.87
2022-11-20T07:17:56.905Z,33.80
2022-11-20T07:20:24.007Z,40.90
2022-11-20T07:22:58.482Z,48.83
2022-11-20T07:25:26.672Z,52.33
2022-11-20T07:27:53.783Z,54.83
2022-11-20T07:30:21.012Z,66.83
2022-11-20T07:32:51.496Z,43.80
2022-11-20T07:35:18.679Z,32.17
2022-11-20T07:37:46.759Z,21.00
2022-11-20T07:40:14.264Z,27.73
2022-11-20T07:42:49.190Z,25.77
2022-11-20T07:45:16.068Z,28.90
2022-11-20T07:47:43.182Z,47.63
2022-11-20T07:50:10.195Z,25.87
2022-11-20T07:52:37.378Z,24.90
2022-11-20T07:55:04.546Z,26.07
2022-11-20T07:57:31.936Z,23.20
2022-11-20T07:59:58.686Z,24.63
2022-11-20T08:02:25.767Z,22.90
2022-11-20T08:04:52.887Z,22.30
2022-11-20T08:07:20.199Z,26.27
2022-11-20T08:09:47.558Z,31.53
2022-11-20T08:12:39.183Z,23.50
2022-11-20T08:15:12.505Z,24.17
2022-11-20T08:17:40.330Z,39.60
2022-11-20T08:20:07.462Z,30.47
2022-11-20T08:22:34.586Z,29.27
2022-11-20T08:25:01.824Z,26.43
2022-11-20T08:27:28.949Z,68.50
2022-11-20T08:29:56.089Z,46.47
2022-11-20T08:32:23.647Z,34.03
2022-11-20T08:34:50.451Z,33.20
2022-11-20T08:37:17.544Z,33.20
2022-11-20T08:39:44.676Z,39.53
2022-11-20T08:42:11.760Z,42.40
2022-11-20T08:44:38.851Z,25.37
2022-11-20T08:47:05.937Z,50.00
2022-11-20T08:49:33.072Z,39.27
2022-11-20T08:52:00.177Z,38.13
2022-11-20T08:54:26.922Z,45.47
2022-11-20T08:56:53.735Z,47.77
2022-11-20T08:59:43.233Z,40.97
2022-11-20T09:02:07.603Z,45.90
2022-11-20T09:04:34.717Z,47.63
2022-11-20T09:07:01.766Z,42.20
2022-11-20T09:09:29.203Z,44.57
2022-11-20T09:11:56.382Z,54.73
2022-11-20T09:14:25.705Z,44.33
2022-11-20T09:16:52.502Z,43.40
2022-11-20T09:19:35.140Z,51.70
2022-11-20T09:22:03.106Z,49.27
2022-11-20T09:24:30.404Z,42.23
2022-11-20T09:26:57.605Z,48.30
2022-11-20T09:29:24.779Z,49.93
2022-11-20T09:31:51.907Z,44.70
2022-11-20T09:34:19.027Z,45.33
2022-11-20T09:36:46.267Z,40.40
2022-11-20T09:39:13.433Z,53.13
2022-11-20T09:41:55.223Z,43.67
2022-11-20T09:44:39.624Z,42.03
2022-11-20T09:47:31.547Z,40.57
2022-11-20T09:50:19.069Z,37.93
2022-11-20T09:53:07.156Z,36.50
2022-11-20T09:55:37.023Z,43.27
2022-11-20T09:58:07.496Z,41.07
2022-11-20T10:00:37.148Z,44.13
2022-11-20T10:03:07.448Z,42.70
2022-11-20T10:05:48.413Z,41.63
2022-11-20T10:08:21.338Z,40.83
2022-11-20T10:10:55.017Z,39.33
2022-11-20T10:13:52.541Z,40.17
2022-11-20T10:16:22.374Z,40.70
2022-11-20T10:19:03.957Z,40.27
2022-11-20T10:21:39.405Z,40.90
2022-11-20T10:24:39.908Z,44.03
2022-11-20T10:27:30.905Z,41.97
2022-11-20T10:30:07.099Z,47.93
2022-11-20T10:32:39.776Z,41.13
2022-11-20T10:35:36.842Z,41.03
2022-11-20T10:38:13.930Z,43.63
2022-11-20T10:40:47.427Z,40.17
2022-11-20T10:43:33.138Z,42.73
2022-11-20T10:46:04.141Z,46.60
2022-11-20T10:48:32.945Z,45.50
2022-11-20T10:51:33.786Z,41.20
2022-11-20T10:54:37.964Z,38.63
2022-11-20T10:57:19.989Z,42.17
2022-11-20T11:00:08.104Z,41.63
2022-11-20T11:02:46.137Z,43.10
2022-11-20T11:05:44.120Z,45.40
2022-11-20T11:08:17.857Z,41.37
2022-11-20T11:11:00.306Z,35.57
2022-11-20T11:13:30.027Z,33.03
2022-11-20T11:15:57.442Z,31.53
2022-11-20T11:18:32.968Z,39.93
2022-11-20T11:21:02.995Z,30.57
2022-11-20T11:23:41.548Z,31.80
2022-11-20T11:26:21.024Z,31.97
2022-11-20T11:28:59.682Z,30.03
2022-11-20T11:31:35.363Z,28.50
2022-11-20T11:34:18.325Z,25.17
2022-11-20T11:36:57.443Z,27.43
2022-11-20T11:39:26.164Z,24.10
2022-11-20T11:41:53.054Z,33.47
2022-11-20T11:44:56.320Z,24.60
2022-11-20T11:47:45.859Z,22.43
2022-11-20T11:50:13.111Z,27.97
2022-11-20T11:52:48.901Z,26.50
2022-11-20T11:55:26.003Z,27.27
2022-11-20T11:58:08.774Z,26.87
2022-11-20T12:00:38.954Z,25.40
2022-11-20T12:03:33.243Z,23.87
2022-11-20T12:06:06.402Z,23.10
2022-11-20T12:08:53.623Z,26.97
2022-11-20T12:11:44.590Z,24.73
2022-11-20T12:14:31.008Z,30.33
2022-11-20T12:16:58.625Z,23.33
2022-11-20T12:19:25.717Z,23.17
2022-11-20T12:22:17.471Z,24.53
2022-11-20T12:24:50.618Z,23.73
2022-11-20T12:27:26.869Z,25.43
2022-11-20T12:30:21.057Z,23.80
2022-11-20T12:32:59.833Z,30.70
2022-11-20T12:35:45.332Z,25.77
2022-11-20T12:38:14.996Z,25.07
2022-11-20T12:40:57.404Z,24.40
2022-11-20T12:43:49.479Z,23.40
2022-11-20T12:46:23.103Z,20.87
2022-11-20T12:49:08.488Z,22.90
2022-11-20T12:52:10.498Z,21.80
2022-11-20T12:54:46.298Z,24.73
2022-11-20T12:57:35.632Z,21.80
2022-11-20T13:00:16.428Z,27.60
2022-11-20T13:02:58.247Z,28.77
2022-11-20T13:05:43.538Z,27.00
2022-11-20T13:08:33.444Z,29.77
2022-11-20T13:11:13.291Z,52.20
2022-11-20T13:14:16.855Z,22.60
2022-11-20T13:17:08.073Z,15.50
2022-11-20T13:19:35.461Z,11.33
2022-11-20T13:22:02.326Z,13.77
2022-11-20T13:24:31.715Z,14.33
2022-11-20T13:27:18.898Z,18.73
2022-11-20T13:29:47.515Z,14.53
2022-11-20T13:32:19.180Z,13.80
2022-11-20T13:34:57.039Z,14.13
2022-11-20T13:37:36.165Z,14.60
2022-11-20T13:40:08.861Z,12.30
2022-11-20T13:42:55.386Z,15.80
2022-11-20T13:45:24.272Z,15.00
2022-11-20T13:47:52.882Z,14.90
2022-11-20T13:50:20.449Z,21.37
2022-11-20T13:53:28.168Z,21.00
2022-11-20T13:56:10.134Z,13.93
2022-11-20T13:59:14.902Z,18.30
2022-11-20T14:01:46.367Z,17.40
2022-11-20T14:04:21.709Z,20.57
2022-11-20T14:06:50.437Z,23.57
2022-11-20T14:09:33.026Z,13.60
2022-11-20T14:12:00.203Z,17.93
2022-11-20T14:14:31.733Z,23.40
2022-11-20T14:17:30.625Z,17.50
2022-11-20T14:20:03.611Z,15.83
2022-11-20T14:22:30.637Z,18.97
2022-11-20T14:25:17.452Z,18.37
2022-11-20T14:27:48.961Z,18.07
2022-11-20T14:30:16.198Z,19.00
2022-11-20T14:32:44.987Z,20.50
2022-11-20T14:35:20.137Z,19.43
2022-11-20T14:37:47.020Z,19.50
2022-11-20T14:40:28.600Z,19.80
2022-11-20T14:42:55.822Z,21.20
2022-11-20T14:45:23.861Z,18.90
2022-11-20T14:47:53.086Z,20.23
2022-11-20T14:50:30.406Z,16.90
2022-11-20T14:52:59.562Z,31.73
2022-11-20T14:55:37.362Z,17.37
2022-11-20T14:58:22.411Z,22.30
2022-11-20T15:00:57.884Z,22.77
2022-11-20T15:03:32.026Z,31.10
2022-11-20T15:05:59.552Z,26.53
2022-11-20T15:08:26.857Z,31.13
2022-11-20T15:10:54.801Z,32.03
2022-11-20T15:13:32.295Z,31.07
2022-11-20T15:16:01.252Z,29.13
2022-11-20T15:18:54.833Z,25.60
2022-11-20T15:21:22.147Z,19.60
2022-11-20T15:23:49.146Z,23.00
2022-11-20T15:26:25.551Z,23.53
2022-11-20T15:28:53.524Z,21.77
2022-11-20T15:31:23.175Z,19.80
2022-11-20T15:33:50.419Z,23.33
2022-11-20T15:36:17.740Z,45.10
2022-11-20T15:38:44.920Z,28.30
2022-11-20T15:41:12.376Z,19.47
2022-11-20T15:43:39.797Z,24.23
2022-11-20T15:46:11.240Z,20.40
2022-11-20T15:48:52.611Z,23.23
2022-11-20T15:51:25.783Z,22.40
2022-11-20T15:53:52.960Z,21.90
2022-11-20T15:56:19.736Z,22.30
2022-11-20T15:58:46.653Z,22.13
2022-11-20T16:01:18.743Z,23.20
2022-11-20T16:03:46.057Z,24.47
2022-11-20T16:06:12.922Z,24.77
2022-11-20T16:08:39.790Z,23.80
2022-11-20T16:11:06.571Z,23.13
2022-11-20T16:13:53.819Z,32.73
2022-11-20T16:16:38.671Z,27.47
2022-11-20T16:19:05.730Z,22.80
2022-11-20T16:21:33.165Z,25.63
2022-11-20T16:24:05.398Z,25.90
2022-11-20T16:26:32.808Z,23.67
2022-11-20T16:29:01.232Z,27.37
2022-11-20T16:31:28.053Z,23.70
2022-11-20T16:33:56.706Z,25.20
2022-11-20T16:36:26.150Z,24.40
2022-11-20T16:38:54.619Z,29.90
2022-11-20T16:41:21.574Z,37.80
2022-11-20T16:43:50.649Z,37.70
2022-11-20T16:46:19.241Z,44.57
2022-11-20T16:48:52.759Z,41.30
2022-11-20T16:51:19.965Z,38.93
2022-11-20T16:53:47.145Z,34.40
2022-11-20T16:56:17.223Z,36.53
2022-11-20T16:58:45.223Z,33.77
2022-11-20T17:01:14.886Z,36.40
2022-11-20T17:03:43.467Z,35.93
2022-11-20T17:06:20.508Z,38.87
2022-11-20T17:08:48.170Z,37.40
2022-11-20T17:11:17.543Z,37.47
2022-11-20T17:13:44.789Z,36.77
2022-11-20T17:16:20.493Z,37.37
2022-11-20T17:18:50.121Z,36.93
2022-11-20T17:21:18.894Z,39.10
2022-11-20T17:23:47.382Z,36.33
2022-11-20T17:26:18.380Z,44.93
2022-11-20T17:28:46.325Z,44.03
2022-11-20T17:31:17.520Z,41.10
2022-11-20T17:33:46.056Z,32.90
2022-11-20T17:36:15.319Z,35.10
2022-11-20T17:38:43.021Z,36.73
2022-11-20T17:41:18.313Z,34.73
2022-11-20T17:43:45.834Z,32.47
2022-11-20T17:46:24.176Z,32.67
2022-11-20T17:48:51.134Z,31.27
2022-11-20T17:51:26.810Z,31.33
2022-11-20T17:53:56.539Z,32.67
2022-11-20T17:56:41.756Z,31.67
2022-11-20T17:59:11.117Z,32.13
2022-11-20T18:01:39.443Z,34.73
2022-11-20T18:04:06.862Z,36.07
2022-11-20T18:06:36.753Z,35.00
2022-11-20T18:09:04.982Z,40.30
2022-11-20T18:11:35.448Z,32.50
2022-11-20T18:14:23.126Z,36.53
2022-11-20T18:17:03.736Z,30.47
2022-11-20T18:19:36.381Z,34.33
2022-11-20T18:22:07.359Z,34.40
2022-11-20T18:24:35.954Z,39.70
2022-11-20T18:27:03.396Z,32.50
2022-11-20T18:29:31.206Z,37.57
2022-11-20T18:31:59.016Z,35.90
2022-11-20T18:34:26.660Z,35.70
2022-11-20T18:36:53.900Z,33.83
2022-11-20T18:39:20.764Z,32.83
2022-11-20T18:42:06.557Z,32.30
2022-11-20T18:44:51.794Z,38.60
2022-11-20T18:47:46.248Z,41.60
2022-11-20T18:50:13.406Z,33.53
2022-11-20T18:52:44.268Z,33.97
2022-11-20T18:55:11.997Z,38.20
2022-11-20T18:57:38.877Z,34.83
2022-11-20T19:00:09.179Z,36.30
2022-11-20T19:02:42.492Z,39.37
2022-11-20T19:05:14.305Z,39.20
2022-11-20T19:07:41.531Z,38.60
2022-11-20T19:10:08.756Z,43.30
2022-11-20T19:12:35.898Z,37.30
2022-11-20T19:15:03.084Z,38.37
2022-11-20T19:17:30.247Z,43.90
2022-11-20T19:19:56.968Z,41.90
2022-11-20T19:22:24.147Z,39.90
2022-11-20T19:24:50.905Z,39.43
2022-11-20T19:27:18.059Z,37.73
2022-11-20T19:29:45.208Z,42.90
2022-11-20T19:32:12.391Z,38.83
2022-11-20T19:34:39.565Z,39.20
2022-11-20T19:37:07.018Z,39.73
2022-11-20T19:39:36.206Z,38.10
2022-11-20T19:42:03.385Z,35.30
2022-11-20T19:44:30.569Z,44.20
2022-11-20T19:46:58.631Z,39.93
2022-11-20T19:49:26.095Z,42.17
2022-11-20T19:51:53.659Z,43.17
2022-11-20T19:54:20.811Z,41.40
2022-11-20T19:56:49.470Z,45.43
2022-11-20T19:59:16.729Z,44.70
2022-11-20T20:01:44.028Z,36.00
2022-11-20T20:04:10.945Z,33.10
2022-11-20T20:06:39.070Z,29.43
2022-11-20T20:09:12.077Z,31.77
2022-11-20T20:11:39.717Z,27.10
2022-11-20T20:14:09.886Z,32.60
2022-11-20T20:16:37.043Z,41.53
2022-11-20T20:19:05.002Z,36.77
2022-11-20T20:21:33.912Z,37.73
2022-11-20T20:24:01.263Z,37.83
2022-11-20T20:26:30.556Z,33.27
2022-11-20T20:28:57.693Z,37.40
2022-11-20T20:31:26.799Z,38.03
2022-11-20T20:33:54.335Z,38.17
2022-11-20T20:36:22.401Z,32.13
2022-11-20T20:38:53.059Z,34.00
2022-11-20T20:41:20.798Z,33.00
2022-11-20T20:44:06.103Z,32.60
2022-11-20T20:46:33.023Z,36.57
2022-11-20T20:48:59.848Z,32.23
2022-11-20T20:51:26.556Z,29.90
2022-11-20T20:53:54.291Z,37.63
2022-11-20T20:56:21.478Z,30.40
2022-11-20T20:58:48.697Z,30.90
2022-11-20T21:01:17.073Z,34.40
2022-11-20T21:03:44.113Z,41.90
2022-11-20T21:06:11.537Z,33.07
2022-11-20T21:08:40.663Z,34.73
2022-11-20T21:11:11.537Z,34.20
2022-11-20T21:13:39.929Z,32.50
2022-11-20T21:16:06.981Z,30.20
2022-11-20T21:18:34.170Z,29.97
2022-11-20T21:21:22.407Z,28.27
2022-11-20T21:23:49.166Z,30.90
2022-11-20T21:26:16.233Z,28.43
2022-11-20T21:28:43.330Z,30.50
2022-11-20T21:31:11.308Z,30.17
2022-11-20T21:33:43.520Z,33.63
2022-11-20T21:36:12.624Z,31.13
2022-11-20T21:38:39.455Z,33.10
2022-11-20T21:41:09.077Z,30.60
2022-11-20T21:43:36.267Z,32.87
2022-11-20T21:46:04.712Z,30.70
2022-11-20T21:48:32.721Z,34.30
2022-11-20T21:51:10.893Z,26.30
2022-11-20T21:53:38.064Z,32.80
2022-11-20T21:56:06.875Z,33.00
2022-11-20T21:58:35.009Z,31.53
2022-11-20T22:01:27.209Z,32.30
2022-11-20T22:03:59.242Z,28.47
2022-11-20T22:06:29.691Z,30.07
2022-11-20T22:08:56.778Z,26.57
2022-11-20T22:11:23.947Z,28.57
2022-11-20T22:14:09.130Z,26.90
2022-11-20T22:16:37.365Z,35.03
2022-11-20T22:19:05.393Z,27.43
2022-11-20T22:21:32.633Z,30.83
2022-11-20T22:23:59.844Z,31.37
2022-11-20T22:26:29.651Z,31.87
2022-11-20T22:28:58.351Z,36.73
2022-11-20T22:31:27.380Z,34.67
2022-11-20T22:33:54.527Z,36.80
2022-11-20T22:36:31.849Z,31.47
2022-11-20T22:38:58.967Z,34.50
2022-11-20T22:41:29.083Z,33.93
2022-11-20T22:43:56.583Z,29.77
2022-11-20T22:46:24.210Z,33.10
2022-11-20T22:48:59.527Z,35.07
2022-11-20T22:51:32.215Z,35.00
2022-11-20T22:53:59.133Z,29.03
2022-11-20T22:56:26.108Z,30.90
2022-11-20T22:58:53.745Z,30.30
2022-11-20T23:01:26.438Z,33.50
2022-11-20T23:04:01.136Z,27.37
2022-11-20T23:06:28.801Z,30.17
2022-11-20T23:08:56.372Z,27.87
2022-11-20T23:11:25.932Z,28.77
2022-11-20T23:13:58.247Z,29.73
2022-11-20T23:16:27.010Z,32.87
2022-11-20T23:18:55.644Z,27.10
2022-11-20T23:21:22.476Z,29.87
2022-11-20T23:23:53.962Z,28.40
2022-11-20T23:26:23.049Z,26.10
2022-11-20T23:28:50.214Z,30.00
2022-11-20T23:31:17.409Z,27.63
2022-11-20T23:33:45.794Z,28.53
2022-11-20T23:36:13.381Z,32.77
2022-11-20T23:38:40.507Z,29.03
2022-11-20T23:41:07.664Z,29.73
2022-11-20T23:43:34.913Z,25.53
2022-11-20T23:46:02.723Z,25.97
2022-11-20T23:48:35.362Z,29.53
2022-11-20T23:51:02.948Z,28.20
2022-11-20T23:53:29.971Z,29.53
2022-11-20T23:55:58.809Z,26.97
2022-11-20T23:58:30.285Z,25.60
